createdAt,value
2019-04-03T00:02:53.752Z,13.50
2019-04-03T00:05:50.974Z,13.40
2019-04-03T00:08:21.035Z,13.50
2019-04-03T00:11:29.546Z,13.40
2019-04-03T00:14:18.728Z,13.40
2019-04-03T00:17:08.212Z,13.40
2019-04-03T00:19:57.198Z,13.40
2019-04-03T00:22:39.376Z,13.30
2019-04-03T00:25:22.297Z,13.30
2019-04-03T00:27:53.018Z,13.30
2019-04-03T00:30:41.988Z,13.40
2019-04-03T00:33:11.703Z,13.50
2019-04-03T00:36:00.716Z,13.40
2019-04-03T00:38:49.686Z,13.40
2019-04-03T00:41:38.679Z,13.40
2019-04-03T00:44:28.000Z,13.30
2019-04-03T00:46:58.122Z,13.30
2019-04-03T00:49:47.535Z,13.30
2019-04-03T00:52:36.808Z,13.20
2019-04-03T00:55:46.328Z,13.10
2019-04-03T01:02:10.115Z,13.00
2019-04-03T01:04:59.226Z,13.00
2019-04-03T01:07:48.423Z,13.00
2019-04-03T01:10:37.954Z,13.00
2019-04-03T01:13:08.095Z,13.00
2019-04-03T01:15:49.908Z,12.80
2019-04-03T01:18:34.360Z,12.90
2019-04-03T01:21:15.579Z,12.80
2019-04-03T01:23:57.729Z,12.80
2019-04-03T01:26:40.743Z,12.80
2019-04-03T01:29:23.139Z,12.90
2019-04-03T01:32:05.830Z,12.90
2019-04-03T01:34:47.945Z,12.90
2019-04-03T01:37:29.391Z,12.90
2019-04-03T01:40:11.371Z,12.90
2019-04-03T01:42:53.563Z,12.80
2019-04-03T01:45:35.949Z,12.80
2019-04-03T01:48:17.847Z,12.80
2019-04-03T01:51:00.319Z,12.70
2019-04-03T01:53:42.536Z,12.80
2019-04-03T01:56:24.832Z,12.80
2019-04-03T01:59:07.409Z,12.70
2019-04-03T02:01:49.410Z,12.80
2019-04-03T02:04:31.160Z,12.70
2019-04-03T02:07:14.910Z,12.70
2019-04-03T02:10:00.424Z,12.60
2019-04-03T02:12:30.764Z,12.50
2019-04-03T02:15:00.874Z,12.40
2019-04-03T02:17:32.485Z,12.40
2019-04-03T02:20:02.850Z,12.40
2019-04-03T02:22:52.378Z,12.30
2019-04-03T02:25:41.572Z,12.30
2019-04-03T02:28:31.016Z,12.30
2019-04-03T02:31:20.530Z,12.20
2019-04-03T02:34:09.877Z,12.20
2019-04-03T02:36:59.102Z,12.30
2019-04-03T02:39:48.479Z,12.30
2019-04-03T02:42:40.272Z,12.30
2019-04-03T02:45:48.343Z,12.30
2019-04-03T02:48:38.411Z,12.30
2019-04-03T02:51:29.288Z,12.30
2019-04-03T02:54:37.499Z,12.20
2019-04-03T02:57:27.127Z,12.00
2019-04-03T03:00:16.232Z,11.80
2019-04-03T03:03:06.127Z,11.70
2019-04-03T03:05:55.283Z,11.60
2019-04-03T03:11:59.123Z,11.40
2019-04-03T03:14:48.613Z,11.40
2019-04-03T03:17:38.456Z,11.40
2019-04-03T03:20:10.192Z,11.30
2019-04-03T03:23:24.762Z,11.30
2019-04-03T03:26:10.946Z,11.30
2019-04-03T03:29:15.049Z,11.30
2019-04-03T03:32:17.751Z,11.30
2019-04-03T03:35:28.047Z,11.50
2019-04-03T03:38:31.032Z,11.40
2019-04-03T03:41:22.679Z,11.40
2019-04-03T03:44:29.998Z,11.10
2019-04-03T03:54:08.893Z,10.80
2019-04-03T03:56:58.218Z,10.70
2019-04-03T04:03:23.837Z,10.60
2019-04-03T04:06:12.842Z,10.60
2019-04-03T04:09:01.843Z,10.50
2019-04-03T04:11:34.364Z,10.40
2019-04-03T04:14:23.622Z,10.40
2019-04-03T04:17:33.688Z,10.40
2019-04-03T04:20:23.385Z,10.40
2019-04-03T04:23:05.556Z,10.40
2019-04-03T04:25:47.527Z,10.60
2019-04-03T04:28:29.800Z,10.70
2019-04-03T04:31:12.798Z,10.80
2019-04-03T04:33:54.610Z,10.90
2019-04-03T04:36:35.927Z,10.90
2019-04-03T04:39:17.271Z,10.90
2019-04-03T04:41:59.316Z,10.80
2019-04-03T04:44:41.589Z,10.70
2019-04-03T04:47:23.516Z,10.50
2019-04-03T04:50:05.662Z,10.40
2019-04-03T04:52:47.913Z,10.40
2019-04-03T04:55:31.026Z,10.20
2019-04-03T04:58:13.518Z,10.20
2019-04-03T05:00:55.559Z,10.10
2019-04-03T05:03:37.587Z,10.10
2019-04-03T05:06:19.085Z,10.10
2019-04-03T05:09:03.254Z,10.00
2019-04-03T05:11:44.695Z,10.10
2019-04-03T05:14:26.036Z,10.10
2019-04-03T05:17:08.394Z,10.10
2019-04-03T05:19:50.192Z,10.30
2019-04-03T05:22:32.628Z,10.20
2019-04-03T05:25:14.226Z,10.20
2019-04-03T05:27:55.942Z,10.30
2019-04-03T05:30:37.980Z,10.20
2019-04-03T05:33:19.722Z,10.10
2019-04-03T05:36:02.000Z,10.10
2019-04-03T05:38:32.547Z,10.00
2019-04-03T05:41:21.501Z,10.00
2019-04-03T05:44:10.632Z,9.90
2019-04-03T05:47:00.048Z,10.00
2019-04-03T05:50:08.143Z,9.90
2019-04-03T05:52:50.203Z,10.00
2019-04-03T05:55:32.167Z,10.10
2019-04-03T05:58:16.291Z,10.30
2019-04-03T06:01:04.428Z,10.40
2019-04-03T06:03:44.892Z,10.60
2019-04-03T06:06:25.063Z,10.70
2019-04-03T06:09:06.456Z,10.70
2019-04-03T06:11:48.644Z,10.80
2019-04-03T06:14:30.143Z,10.70
2019-04-03T06:17:12.252Z,10.70
2019-04-03T06:19:54.700Z,10.60
2019-04-03T06:22:36.684Z,10.60
2019-04-03T06:25:18.764Z,10.60
2019-04-03T06:28:00.903Z,10.60
2019-04-03T06:30:43.191Z,10.50
2019-04-03T06:33:13.052Z,10.50
2019-04-03T06:35:45.339Z,10.50
2019-04-03T06:38:14.799Z,10.50
2019-04-03T06:41:04.072Z,10.50
2019-04-03T06:43:54.532Z,10.60
2019-04-03T06:46:56.065Z,10.70
2019-04-03T06:49:39.711Z,10.70
2019-04-03T06:52:21.547Z,10.80
2019-04-03T06:55:04.169Z,10.90
2019-04-03T06:57:46.218Z,10.90
2019-04-03T07:00:28.222Z,10.90
2019-04-03T07:03:09.867Z,10.90
2019-04-03T07:05:41.676Z,11.00
2019-04-03T07:08:49.790Z,11.00
2019-04-03T07:11:39.231Z,11.10
2019-04-03T07:14:28.263Z,11.10
2019-04-03T07:17:17.230Z,11.20
2019-04-03T07:20:13.579Z,11.30
2019-04-03T07:23:16.111Z,11.20
2019-04-03T07:26:05.542Z,11.20
2019-04-03T07:29:16.974Z,11.30
2019-04-03T07:32:05.914Z,11.50
2019-04-03T07:34:54.903Z,11.60
2019-04-03T07:37:44.187Z,11.70
2019-04-03T07:40:33.299Z,11.80
2019-04-03T07:43:22.233Z,12.00
2019-04-03T07:46:11.687Z,12.10
2019-04-03T07:49:00.766Z,12.20
2019-04-03T07:51:50.274Z,12.10
2019-04-03T07:54:39.262Z,12.10
2019-04-03T07:57:29.112Z,12.00
2019-04-03T08:00:38.521Z,12.20
2019-04-03T08:03:47.975Z,12.20
2019-04-03T08:06:37.057Z,12.10
2019-04-03T08:09:26.295Z,12.10
2019-04-03T08:12:17.487Z,12.30
2019-04-03T08:18:33.480Z,12.10
2019-04-03T08:21:22.917Z,12.00
2019-04-03T08:23:53.235Z,12.00
2019-04-03T08:26:42.460Z,12.10
2019-04-03T08:29:33.246Z,11.90
2019-04-03T08:32:41.874Z,12.00
2019-04-03T08:35:30.885Z,11.90
2019-04-03T08:38:19.923Z,11.90
2019-04-03T08:41:08.855Z,11.90
2019-04-03T08:43:38.578Z,12.00
2019-04-03T08:46:27.590Z,11.90
2019-04-03T08:49:16.581Z,12.00
2019-04-03T08:52:06.133Z,12.00
2019-04-03T08:55:15.910Z,11.90
2019-04-03T08:58:26.589Z,12.00
2019-04-03T09:01:37.041Z,12.10
2019-04-03T09:07:55.381Z,11.90
2019-04-03T09:11:05.076Z,11.90
2019-04-03T09:13:54.920Z,11.80
2019-04-03T09:17:04.549Z,11.90
2019-04-03T09:19:56.256Z,11.90
2019-04-03T09:23:03.553Z,12.10
2019-04-03T09:25:52.660Z,12.10
2019-04-03T09:28:22.960Z,12.10
2019-04-03T09:30:54.109Z,12.00
2019-04-03T09:34:02.748Z,12.10
2019-04-03T09:36:51.990Z,12.20
2019-04-03T09:40:02.156Z,12.40
2019-04-03T09:42:51.557Z,12.40
2019-04-03T09:46:01.051Z,12.50
2019-04-03T09:49:10.780Z,13.00
2019-04-03T09:52:19.019Z,13.80
2019-04-03T09:55:08.384Z,14.10
2019-04-03T09:57:57.395Z,14.60
2019-04-03T10:00:46.632Z,14.70
2019-04-03T10:03:35.923Z,14.90
2019-04-03T10:06:25.289Z,14.60
2019-04-03T10:09:14.564Z,14.40
2019-04-03T10:12:03.570Z,13.90
2019-04-03T10:14:33.414Z,13.50
2019-04-03T10:17:05.381Z,13.50
2019-04-03T10:20:15.094Z,13.50
2019-04-03T10:23:04.343Z,13.30
2019-04-03T10:25:53.721Z,13.20
2019-04-03T10:29:03.187Z,13.20
2019-04-03T10:31:44.927Z,13.40
2019-04-03T10:34:26.842Z,13.30
2019-04-03T10:37:08.677Z,13.30
2019-04-03T10:39:52.610Z,13.70
2019-04-03T10:42:33.926Z,13.90
2019-04-03T10:45:16.341Z,14.10
2019-04-03T10:47:58.955Z,13.80
2019-04-03T10:50:40.547Z,13.90
2019-04-03T10:53:22.450Z,13.80
2019-04-03T10:56:04.903Z,13.70
2019-04-03T10:58:49.500Z,13.80
2019-04-03T11:01:30.011Z,13.80
2019-04-03T11:04:11.415Z,13.90
2019-04-03T11:06:53.534Z,13.90
2019-04-03T11:09:34.951Z,13.90
2019-04-03T11:12:04.893Z,14.10
2019-04-03T11:14:36.954Z,14.20
2019-04-03T11:17:45.294Z,14.80
2019-04-03T11:20:36.647Z,15.60
2019-04-03T11:23:45.560Z,16.00
2019-04-03T11:26:54.851Z,16.60
2019-04-03T11:30:04.829Z,17.00
2019-04-03T11:33:13.997Z,17.00
2019-04-03T11:36:03.247Z,17.00
2019-04-03T11:38:52.324Z,16.70
2019-04-03T11:41:41.379Z,16.70
2019-04-03T11:44:30.641Z,17.00
2019-04-03T11:47:20.339Z,17.50
2019-04-03T11:50:10.130Z,18.10
2019-04-03T11:53:19.685Z,18.50
2019-04-03T11:56:08.841Z,18.40
2019-04-03T11:58:57.837Z,18.60
2019-04-03T12:01:47.050Z,18.60
2019-04-03T12:04:35.989Z,18.60
2019-04-03T12:07:25.542Z,18.80
2019-04-03T12:10:35.596Z,19.00
2019-04-03T12:13:45.970Z,18.80
2019-04-03T12:16:57.098Z,19.30
2019-04-03T12:20:06.535Z,19.60
2019-04-03T12:23:15.951Z,19.40
2019-04-03T12:26:20.295Z,18.80
2019-04-03T12:29:02.704Z,18.60
2019-04-03T12:31:44.706Z,18.40
2019-04-03T12:34:26.556Z,18.30
2019-04-03T12:37:08.214Z,18.30
2019-04-03T12:39:49.918Z,18.00
2019-04-03T12:42:34.464Z,17.80
2019-04-03T12:45:18.304Z,17.70
2019-04-03T12:47:59.966Z,17.70
2019-04-03T12:50:41.405Z,17.60
2019-04-03T12:53:23.461Z,17.50
2019-04-03T12:56:05.033Z,17.60
2019-04-03T12:58:46.918Z,17.60
2019-04-03T13:01:29.282Z,17.50
2019-04-03T13:04:11.255Z,17.40
2019-04-03T13:06:53.243Z,17.30
2019-04-03T13:09:23.467Z,17.30
2019-04-03T13:12:12.862Z,17.30
2019-04-03T13:15:22.650Z,17.20
2019-04-03T13:18:12.023Z,16.70
2019-04-03T13:24:17.122Z,16.70
2019-04-03T13:27:24.604Z,16.50
2019-04-03T13:30:34.211Z,16.60
2019-04-03T13:33:23.446Z,16.70
2019-04-03T13:36:12.747Z,16.80
2019-04-03T13:38:42.562Z,17.20
2019-04-03T13:41:12.579Z,17.40
2019-04-03T13:44:03.264Z,17.60
2019-04-03T13:46:52.925Z,17.60
2019-04-03T13:50:03.607Z,18.30
2019-04-03T13:53:12.687Z,18.00
2019-04-03T13:56:23.735Z,17.60
2019-04-03T13:59:32.274Z,17.50
2019-04-03T14:02:21.805Z,17.50
2019-04-03T14:05:12.186Z,17.50
2019-04-03T14:07:57.275Z,17.40
2019-04-03T14:10:38.939Z,17.40
2019-04-03T14:13:20.516Z,17.20
2019-04-03T14:16:02.681Z,16.90
2019-04-03T14:18:44.340Z,17.00
2019-04-03T14:21:27.771Z,16.60
2019-04-03T14:24:09.713Z,16.40
2019-04-03T14:26:51.842Z,16.30
2019-04-03T14:29:33.767Z,16.10
2019-04-03T14:32:16.046Z,16.10
2019-04-03T14:35:09.224Z,16.00
2019-04-03T14:37:42.288Z,15.80
2019-04-03T14:40:24.179Z,15.70
2019-04-03T14:43:06.631Z,15.40
2019-04-03T14:45:48.442Z,15.00
2019-04-03T14:48:30.407Z,14.80
2019-04-03T14:51:13.343Z,14.70
2019-04-03T14:53:43.433Z,14.40
2019-04-03T14:56:33.431Z,14.40
2019-04-03T14:59:42.288Z,14.20
2019-04-03T15:02:31.214Z,13.70
2019-04-03T15:05:20.194Z,13.60
2019-04-03T15:08:09.366Z,13.70
2019-04-03T15:11:21.243Z,13.50
2019-04-03T15:14:29.476Z,13.20
2019-04-03T15:17:39.218Z,12.80
2019-04-03T15:20:49.249Z,12.80
2019-04-03T15:23:58.817Z,12.60
2019-04-03T15:27:08.848Z,12.60
2019-04-03T15:29:58.155Z,12.20
2019-04-03T15:32:50.110Z,12.20
2019-04-03T15:35:57.579Z,12.00
2019-04-03T15:42:40.257Z,11.20
2019-04-03T15:45:46.773Z,10.50
2019-04-03T15:48:17.045Z,10.00
2019-04-03T15:51:07.178Z,9.80
2019-04-03T15:54:16.211Z,9.60
2019-04-03T15:57:05.750Z,9.40
2019-04-03T16:00:36.693Z,9.40
2019-04-03T16:03:48.801Z,9.20
2019-04-03T16:06:49.556Z,9.00
2019-04-03T16:09:31.591Z,8.50
2019-04-03T16:12:12.895Z,8.20
2019-04-03T16:14:55.258Z,8.30
2019-04-03T16:17:37.984Z,8.10
2019-04-03T16:20:20.354Z,8.10
2019-04-03T16:23:03.830Z,8.00
2019-04-03T16:25:48.613Z,8.00
2019-04-03T16:28:31.321Z,7.90
2019-04-03T16:31:13.183Z,7.90
2019-04-03T16:33:55.288Z,7.90
2019-04-03T16:36:37.385Z,7.90
2019-04-03T16:39:19.274Z,7.60
2019-04-03T16:42:02.469Z,7.50
2019-04-03T16:44:44.438Z,7.70
2019-04-03T16:47:27.724Z,7.70
2019-04-03T16:50:09.824Z,7.40
2019-04-03T16:52:51.723Z,7.40
2019-04-03T16:55:33.246Z,7.40
2019-04-03T16:58:14.832Z,7.30
2019-04-03T17:00:56.823Z,7.30
2019-04-03T17:03:38.695Z,7.00
2019-04-03T17:06:20.741Z,7.30
2019-04-03T17:08:50.755Z,7.40
2019-04-03T17:11:20.879Z,7.40
2019-04-03T17:14:09.888Z,7.50
2019-04-03T17:16:59.015Z,7.60
2019-04-03T17:19:51.336Z,7.60
2019-04-03T17:25:52.877Z,7.20
2019-04-03T17:28:23.162Z,7.20
2019-04-03T17:31:32.983Z,7.30
2019-04-03T17:34:22.347Z,7.40
2019-04-03T17:37:11.779Z,7.30
2019-04-03T17:43:16.876Z,7.40
2019-04-03T17:46:24.930Z,7.50
2019-04-03T17:49:13.887Z,7.30
2019-04-03T17:52:04.973Z,7.30
2019-04-03T17:55:12.995Z,7.00
2019-04-03T18:01:10.438Z,7.00
2019-04-03T18:03:59.335Z,7.10
2019-04-03T18:06:41.112Z,7.10
2019-04-03T18:09:22.485Z,7.20
2019-04-03T18:12:04.664Z,6.80
2019-04-03T18:14:46.910Z,6.80
2019-04-03T18:17:29.950Z,6.90
2019-04-03T18:20:13.255Z,7.00
2019-04-03T18:22:55.162Z,7.00
2019-04-03T18:25:37.098Z,7.20
2019-04-03T18:28:20.846Z,7.20
2019-04-03T18:31:01.949Z,7.00
2019-04-03T18:33:43.379Z,7.00
2019-04-03T18:36:28.443Z,7.10
2019-04-03T18:39:09.741Z,7.10
2019-04-03T18:41:52.218Z,6.90
2019-04-03T18:44:34.488Z,6.90
2019-04-03T18:47:16.410Z,6.70
2019-04-03T18:49:58.033Z,6.70
2019-04-03T18:52:39.939Z,6.60
2019-04-03T18:55:21.895Z,6.50
2019-04-03T18:58:03.188Z,6.40
2019-04-03T19:00:44.747Z,6.60
2019-04-03T19:03:26.745Z,6.60
2019-04-03T19:06:13.453Z,6.50
2019-04-03T19:08:55.197Z,6.60
2019-04-03T19:11:37.217Z,6.80
2019-04-03T19:14:27.111Z,6.80
2019-04-03T19:17:02.400Z,6.80
2019-04-03T19:19:44.722Z,6.70
2019-04-03T19:22:26.351Z,6.80
2019-04-03T19:25:08.651Z,6.90
2019-04-03T19:27:50.471Z,6.90
2019-04-03T19:30:32.636Z,6.90
2019-04-03T19:33:14.717Z,6.90
2019-04-03T19:35:58.389Z,6.90
2019-04-03T19:38:39.447Z,6.90
2019-04-03T19:41:21.606Z,6.80
2019-04-03T19:44:02.814Z,6.80
2019-04-03T19:46:44.078Z,6.90
2019-04-03T19:49:28.080Z,7.00
2019-04-03T19:52:15.248Z,6.90
2019-04-03T19:54:58.722Z,7.00
2019-04-03T19:57:43.531Z,6.90
2019-04-03T20:00:33.104Z,6.90
2019-04-03T20:04:03.392Z,6.90
2019-04-03T20:06:49.516Z,6.80
2019-04-03T20:09:37.293Z,6.80
2019-04-03T20:12:24.906Z,6.70
2019-04-03T20:24:34.767Z,7.00
2019-04-03T20:27:28.050Z,6.80
2019-04-03T20:30:17.148Z,6.80
2019-04-03T20:33:18.641Z,6.80
2019-04-03T20:36:20.406Z,6.90
2019-04-03T20:39:49.421Z,6.90
2019-04-03T20:42:57.555Z,6.80
2019-04-03T20:46:09.522Z,6.80
2019-04-03T20:49:03.152Z,6.80
2019-04-03T20:52:35.260Z,6.60
2019-04-03T20:55:44.901Z,6.70
2019-04-03T20:58:55.341Z,6.60
2019-04-03T21:01:43.987Z,6.60
2019-04-03T21:04:34.837Z,6.60
2019-04-03T21:07:07.260Z,6.40
2019-04-03T21:09:42.046Z,6.30
2019-04-03T21:12:14.487Z,6.40
2019-04-03T21:15:09.497Z,6.50
2019-04-03T21:21:38.036Z,6.40
2019-04-03T21:24:27.059Z,6.40
2019-04-03T21:33:49.060Z,6.30
2019-04-03T21:44:06.683Z,6.50
2019-04-03T21:47:16.209Z,6.40
2019-04-03T21:56:48.787Z,6.30
2019-04-03T22:00:12.970Z,6.10
2019-04-03T22:03:01.889Z,6.20
2019-04-03T22:05:33.418Z,6.20
2019-04-03T22:14:52.028Z,6.20
2019-04-03T22:21:32.083Z,6.20
2019-04-03T22:24:39.590Z,6.20
2019-04-03T22:27:35.599Z,6.20
2019-04-03T22:34:00.124Z,6.20
2019-04-03T22:36:52.135Z,6.20
2019-04-03T22:39:44.581Z,6.30
2019-04-03T22:42:54.694Z,6.20
2019-04-03T22:45:34.175Z,6.10
2019-04-03T22:48:26.771Z,6.20
2019-04-03T22:54:56.305Z,6.10
2019-04-03T23:04:34.877Z,6.10
2019-04-03T23:10:55.246Z,6.20
2019-04-03T23:13:59.338Z,6.30
2019-04-03T23:17:16.316Z,6.30
2019-04-03T23:20:05.781Z,6.30
2019-04-03T23:22:56.298Z,6.30
2019-04-03T23:26:05.092Z,6.20
2019-04-03T23:28:54.230Z,6.20
2019-04-03T23:31:24.552Z,6.20
2019-04-03T23:34:13.584Z,6.20
2019-04-03T23:37:02.847Z,6.20
2019-04-03T23:39:52.137Z,6.40
2019-04-03T23:42:41.408Z,6.40
2019-04-03T23:45:31.713Z,6.40
2019-04-03T23:48:01.763Z,6.60
2019-04-03T23:50:52.349Z,6.80
2019-04-03T23:54:19.738Z,6.70
2019-04-03T23:56:50.187Z,6.60
2019-04-03T23:59:20.104Z,6.50
